createdAt,value
2023-02-27T00:01:31.280Z,1013.95
2023-02-27T00:06:38.470Z,1013.93
2023-02-27T00:11:45.772Z,1013.97
2023-02-27T00:16:52.944Z,1014.01
2023-02-27T00:22:00.128Z,1014.03
2023-02-27T00:27:07.375Z,1014.05
2023-02-27T00:32:14.644Z,1014.08
2023-02-27T00:37:22.047Z,1014.09
2023-02-27T00:42:29.247Z,1014.11
2023-02-27T00:47:36.448Z,1014.06
2023-02-27T00:52:43.617Z,1014.07
2023-02-27T00:57:50.874Z,1014.07
2023-02-27T01:02:58.002Z,1014.04
2023-02-27T01:08:05.278Z,1014.02
2023-02-27T01:13:12.503Z,1014.08
2023-02-27T01:18:19.886Z,1014.00
2023-02-27T01:23:27.113Z,1013.99
2023-02-27T01:28:34.355Z,1013.97
2023-02-27T01:33:41.518Z,1013.96
2023-02-27T01:38:48.689Z,1013.95
2023-02-27T01:43:56.104Z,1013.99
2023-02-27T01:49:03.790Z,1014.06
2023-02-27T01:54:11.202Z,1014.06
2023-02-27T01:59:18.593Z,1014.04
2023-02-27T02:04:26.434Z,1014.04
2023-02-27T02:09:37.119Z,1014.13
2023-02-27T02:14:44.757Z,1014.11
2023-02-27T02:19:52.317Z,1014.13
2023-02-27T02:25:00.067Z,1014.13
2023-02-27T02:30:07.564Z,1014.14
2023-02-27T02:35:14.911Z,1014.12
2023-02-27T02:40:22.174Z,1014.16
2023-02-27T02:45:30.014Z,1014.12
2023-02-27T02:50:37.221Z,1014.20
2023-02-27T02:55:44.390Z,1014.20
2023-02-27T03:00:51.627Z,1014.22
2023-02-27T03:05:58.800Z,1014.15
2023-02-27T03:11:05.957Z,1014.19
2023-02-27T03:16:13.218Z,1014.18
2023-02-27T03:21:20.406Z,1014.23
2023-02-27T03:26:27.630Z,1014.23
2023-02-27T03:31:34.937Z,1014.33
2023-02-27T03:36:42.014Z,1014.30
2023-02-27T03:41:49.180Z,1014.31
2023-02-27T03:46:56.442Z,1014.34
2023-02-27T03:52:03.625Z,1014.48
2023-02-27T03:57:10.795Z,1014.54
2023-02-27T04:02:18.064Z,1014.52
2023-02-27T04:07:25.278Z,1014.63
2023-02-27T04:12:32.578Z,1014.62
2023-02-27T04:17:39.882Z,1014.67
2023-02-27T04:22:47.191Z,1014.77
2023-02-27T04:27:54.602Z,1014.76
2023-02-27T04:33:02.041Z,1014.72
2023-02-27T04:38:09.356Z,1014.76
2023-02-27T04:43:16.810Z,1014.75
2023-02-27T04:48:26.109Z,1014.76
2023-02-27T04:53:33.542Z,1014.78
2023-02-27T04:58:41.156Z,1014.80
2023-02-27T05:03:48.776Z,1014.80
2023-02-27T05:08:56.357Z,1014.81
2023-02-27T05:14:03.764Z,1014.79
2023-02-27T05:19:11.175Z,1014.74
2023-02-27T05:24:18.578Z,1014.78
2023-02-27T05:29:26.190Z,1014.81
2023-02-27T05:34:33.637Z,1014.79
2023-02-27T05:39:44.180Z,1014.83
2023-02-27T05:44:51.605Z,1014.80
2023-02-27T05:49:58.942Z,1014.78
2023-02-27T05:55:06.293Z,1014.83
2023-02-27T06:00:13.872Z,1014.79
2023-02-27T06:05:21.321Z,1014.82
2023-02-27T06:10:28.828Z,1014.84
2023-02-27T06:15:36.343Z,1014.86
2023-02-27T06:20:43.947Z,1014.94
2023-02-27T06:25:51.291Z,1014.97
2023-02-27T06:31:08.042Z,1015.03
2023-02-27T06:36:07.808Z,1015.06
2023-02-27T06:41:15.060Z,1015.14
2023-02-27T06:46:22.444Z,1015.18
2023-02-27T06:51:29.842Z,1015.23
2023-02-27T06:56:37.217Z,1015.24
2023-02-27T07:01:44.588Z,1015.26
2023-02-27T07:07:32.313Z,1015.29
2023-02-27T07:11:59.823Z,1015.28
2023-02-27T07:17:07.165Z,1015.33
2023-02-27T07:22:14.559Z,1015.33
2023-02-27T07:27:21.938Z,1015.30
2023-02-27T07:32:29.286Z,1015.40
2023-02-27T07:37:36.540Z,1015.41
2023-02-27T07:42:43.998Z,1015.51
2023-02-27T07:47:51.451Z,1015.54
2023-02-27T07:52:58.805Z,1015.51
2023-02-27T07:58:06.196Z,1015.49
2023-02-27T08:03:13.526Z,1015.49
2023-02-27T08:08:21.158Z,1015.55
2023-02-27T08:13:59.044Z,1015.53
2023-02-27T08:18:36.058Z,1015.55
2023-02-27T08:23:43.670Z,1015.62
2023-02-27T08:28:51.264Z,1015.67
2023-02-27T08:34:09.442Z,1015.73
2023-02-27T08:39:07.047Z,1015.76
2023-02-27T08:44:14.326Z,1015.83
2023-02-27T08:49:21.815Z,1015.87
2023-02-27T08:54:29.214Z,1015.91
2023-02-27T08:59:36.541Z,1015.91
2023-02-27T09:04:44.025Z,1015.98
2023-02-27T09:09:51.522Z,1016.01
2023-02-27T09:14:58.944Z,1016.03
2023-02-27T09:20:06.567Z,1015.98
2023-02-27T09:25:13.853Z,1016.04
2023-02-27T09:30:30.094Z,1016.03
2023-02-27T09:35:39.387Z,1016.14
2023-02-27T09:40:46.753Z,1016.15
2023-02-27T09:45:54.340Z,1016.20
2023-02-27T09:51:01.777Z,1016.28
2023-02-27T09:56:09.142Z,1016.29
2023-02-27T10:01:16.585Z,1016.33
2023-02-27T10:06:23.962Z,1016.35
2023-02-27T10:11:32.526Z,1016.36
2023-02-27T10:16:43.194Z,1016.41
2023-02-27T10:21:50.827Z,1016.47
2023-02-27T10:27:00.215Z,1016.51
2023-02-27T10:32:09.725Z,1016.56
2023-02-27T10:37:16.872Z,1016.54
2023-02-27T10:42:33.737Z,1016.62
2023-02-27T10:47:41.424Z,1016.67
2023-02-27T10:52:50.007Z,1016.64
2023-02-27T10:58:05.892Z,1016.66
2023-02-27T11:03:13.383Z,1016.69
2023-02-27T11:08:20.947Z,1016.72
2023-02-27T11:13:28.607Z,1016.68
2023-02-27T11:18:35.914Z,1016.74
2023-02-27T11:23:46.857Z,1016.72
2023-02-27T11:29:08.960Z,1016.63
2023-02-27T11:34:16.626Z,1016.62
2023-02-27T11:39:24.759Z,1016.65
2023-02-27T11:44:50.794Z,1016.63
2023-02-27T11:49:44.909Z,1016.71
2023-02-27T11:54:52.374Z,1016.78
2023-02-27T12:00:02.814Z,1016.83
2023-02-27T12:05:14.312Z,1016.80
2023-02-27T12:10:26.130Z,1016.87
2023-02-27T12:15:33.501Z,1016.82
2023-02-27T12:20:43.270Z,1016.83
2023-02-27T12:25:49.974Z,1016.83
2023-02-27T12:30:57.252Z,1016.79
2023-02-27T12:36:04.802Z,1016.80
2023-02-27T12:41:12.201Z,1016.82
2023-02-27T12:46:19.675Z,1016.86
2023-02-27T12:51:27.625Z,1016.89
2023-02-27T12:56:34.783Z,1016.92
2023-02-27T13:01:42.141Z,1016.97
2023-02-27T13:06:50.063Z,1016.95
2023-02-27T13:12:12.727Z,1016.96
2023-02-27T13:17:24.819Z,1016.95
2023-02-27T13:22:32.378Z,1017.02
2023-02-27T13:27:39.981Z,1017.03
2023-02-27T13:32:47.501Z,1017.10
2023-02-27T13:37:54.622Z,1017.09
2023-02-27T13:43:02.003Z,1017.16
2023-02-27T13:48:15.961Z,1017.18
2023-02-27T13:53:37.904Z,1017.21
2023-02-27T13:58:40.188Z,1017.21
2023-02-27T14:03:47.803Z,1017.24
2023-02-27T14:09:04.994Z,1017.23
2023-02-27T14:14:07.676Z,1017.25
2023-02-27T14:19:19.921Z,1017.28
2023-02-27T14:24:34.883Z,1017.29
2023-02-27T14:29:42.478Z,1017.41
2023-02-27T14:34:56.130Z,1017.31
2023-02-27T14:40:21.197Z,1017.34
2023-02-27T14:45:18.958Z,1017.38
2023-02-27T14:50:24.405Z,1017.31
2023-02-27T14:55:38.169Z,1017.32
2023-02-27T15:00:45.537Z,1017.31
2023-02-27T15:05:52.994Z,1017.35
2023-02-27T15:11:06.409Z,1017.39
2023-02-27T15:16:16.505Z,1017.43
2023-02-27T15:21:24.746Z,1017.45
2023-02-27T15:26:44.600Z,1017.53
2023-02-27T15:31:54.570Z,1017.58
2023-02-27T15:37:00.137Z,1017.62
2023-02-27T15:42:25.977Z,1017.67
2023-02-27T15:47:28.174Z,1017.76
2023-02-27T15:52:35.910Z,1017.79
2023-02-27T15:57:56.522Z,1017.83
2023-02-27T16:03:29.002Z,1017.91
2023-02-27T16:08:36.425Z,1017.97
2023-02-27T16:14:11.088Z,1018.00
2023-02-27T16:19:08.652Z,1018.09
2023-02-27T16:24:16.409Z,1018.14
2023-02-27T16:29:27.484Z,1018.24
2023-02-27T16:34:45.758Z,1018.34
2023-02-27T16:45:02.620Z,1018.49
2023-02-27T16:50:15.213Z,1018.53
2023-02-27T16:55:22.374Z,1018.62
2023-02-27T17:00:29.895Z,1018.65
2023-02-27T17:05:37.585Z,1018.71
2023-02-27T17:10:44.929Z,1018.75
2023-02-27T17:15:52.158Z,1018.79
2023-02-27T17:20:59.913Z,1018.88
2023-02-27T17:26:07.629Z,1018.92
2023-02-27T17:31:15.270Z,1018.98
2023-02-27T17:36:22.993Z,1019.05
2023-02-27T17:41:30.580Z,1019.13
2023-02-27T17:46:38.121Z,1019.15
2023-02-27T17:51:45.807Z,1019.16
2023-02-27T17:56:53.414Z,1019.20
2023-02-27T18:02:01.004Z,1019.29
2023-02-27T18:07:08.249Z,1019.24
2023-02-27T18:12:15.483Z,1019.31
2023-02-27T18:17:23.080Z,1019.35
2023-02-27T18:22:30.871Z,1019.35
2023-02-27T18:27:39.614Z,1019.40
2023-02-27T18:32:47.321Z,1019.42
2023-02-27T18:37:54.944Z,1019.37
2023-02-27T18:43:02.377Z,1019.43
2023-02-27T18:48:09.574Z,1019.46
2023-02-27T18:53:17.079Z,1019.41
2023-02-27T18:58:24.796Z,1019.45
2023-02-27T19:03:32.512Z,1019.48
2023-02-27T19:08:41.096Z,1019.54
2023-02-27T19:13:48.770Z,1019.55
2023-02-27T19:18:56.495Z,1019.53
2023-02-27T19:24:04.606Z,1019.54
2023-02-27T19:29:12.017Z,1019.51
2023-02-27T19:34:19.651Z,1019.49
2023-02-27T19:39:27.237Z,1019.50
2023-02-27T19:44:34.851Z,1019.52
2023-02-27T19:49:42.499Z,1019.52
2023-02-27T19:54:50.187Z,1019.52
2023-02-27T19:59:57.902Z,1019.48
2023-02-27T20:05:05.262Z,1019.53
2023-02-27T20:10:12.722Z,1019.53
2023-02-27T20:15:20.650Z,1019.51
2023-02-27T20:20:29.638Z,1019.49
2023-02-27T20:25:35.972Z,1019.51
2023-02-27T20:30:43.647Z,1019.50
2023-02-27T20:35:51.365Z,1019.49
2023-02-27T20:40:58.834Z,1019.44
2023-02-27T20:46:06.444Z,1019.37
2023-02-27T20:51:13.977Z,1019.29
2023-02-27T20:56:21.300Z,1019.27
2023-02-27T21:01:29.162Z,1019.20
2023-02-27T21:06:36.460Z,1019.20
2023-02-27T21:11:43.857Z,1019.17
2023-02-27T21:16:51.078Z,1019.16
2023-02-27T21:21:58.639Z,1019.09
2023-02-27T21:27:05.918Z,1019.04
2023-02-27T21:32:13.485Z,1019.07
2023-02-27T21:37:20.983Z,1019.02
2023-02-27T21:42:28.162Z,1019.04
2023-02-27T21:47:35.395Z,1018.98
2023-02-27T21:52:42.580Z,1018.97
2023-02-27T21:57:49.711Z,1019.02
2023-02-27T22:02:57.011Z,1019.01
2023-02-27T22:08:04.130Z,1018.96
2023-02-27T22:13:11.273Z,1018.91
2023-02-27T22:18:18.473Z,1018.91
2023-02-27T22:23:25.683Z,1018.85
2023-02-27T22:28:33.046Z,1018.90
2023-02-27T22:33:40.210Z,1018.91
2023-02-27T22:38:47.415Z,1018.92
2023-02-27T22:43:54.602Z,1018.90
2023-02-27T22:49:01.795Z,1018.89
2023-02-27T22:54:08.994Z,1018.91
2023-02-27T22:59:16.130Z,1018.88
2023-02-27T23:04:23.325Z,1018.83
2023-02-27T23:09:30.554Z,1018.86
2023-02-27T23:14:37.807Z,1018.78
2023-02-27T23:19:45.004Z,1018.79
2023-02-27T23:24:53.208Z,1018.81
2023-02-27T23:30:00.413Z,1018.82
2023-02-27T23:35:07.637Z,1018.80
2023-02-27T23:40:14.846Z,1018.76
2023-02-27T23:45:22.004Z,1018.78
2023-02-27T23:50:29.180Z,1018.76
2023-02-27T23:55:36.406Z,1018.75
